Terminal Aerodrome Forecast
Issued by NWS Grand Forks, ND

Home | Current Version | Previous Version | Graphics & Text | Print | Product List | Glossary On
Versions: 1 2 3 4 5 6 7 8 9 10 11 12 13 14 15 16 17 18 19 20 21 22
000
FTUS43 KFGF 262113 AAB
TAFGFK
TAF AMD
KGFK 262113Z 2621/2718 01014KT 2SM -SN OVC012
      TEMPO 2621/2624 1/2SM SN OVC009
     FM270100 02013KT 3SM -SN OVC010
     FM270400 02013KT P6SM OVC010
     FM271200 35010KT P6SM BKN020
     FM271700 35014KT P6SM BKN025=

USA.gov is the U.S. government's official web portal to all federal, state and local government web resources and services.